Time;durP1;ratioP1;P1;durP2;ratioP2;P2;SDS_P1;SDS_P2;PMS_P1;PMS_P2;Temp;Humidity;BMP_temperature;BMP_pressure;BME280_temperature;BME280_humidity;BME280_pressure;Samples;Min_cycle;Max_cycle;Signal;HPM_P1;HPM_P2
2021/09/06 00:00:14;;;;;;;14.13;9.45;;;19.90;70.50;;;;;;5033701;28;20057;-92
2021/09/06 00:02:42;;;;;;;13.45;10.98;;;19.80;70.50;;;;;;5016056;28;20054;-92
2021/09/06 00:05:11;;;;;;;10.55;9.35;;;19.80;70.40;;;;;;5008084;28;20053;-91
2021/09/06 00:07:39;;;;;;;14.10;9.57;;;19.80;70.50;;;;;;5016225;28;20056;-92
2021/09/06 00:10:39;;;;;;;12.02;10.30;;;19.70;70.50;;;;;;5005351;28;20116;-93
2021/09/06 00:13:09;;;;;;;12.50;10.25;;;19.70;70.50;;;;;;5009083;28;20072;-93
2021/09/06 00:15:37;;;;;;;13.38;10.48;;;19.70;70.60;;;;;;5019356;28;20057;-93
2021/09/06 00:18:05;;;;;;;14.27;9.85;;;19.60;70.70;;;;;;5019156;28;20057;-91
2021/09/06 00:20:35;;;;;;;13.65;9.52;;;19.60;71.00;;;;;;5018196;28;20056;-94
2021/09/06 00:23:03;;;;;;;12.98;9.85;;;19.50;71.20;;;;;;5035879;28;20057;-93
2021/09/06 00:25:30;;;;;;;13.50;9.77;;;19.50;71.30;;;;;;5017516;28;20054;-94
2021/09/06 00:27:57;;;;;;;12.40;9.23;;;19.50;71.20;;;;;;5019711;28;20053;-93
2021/09/06 00:30:24;;;;;;;12.13;9.52;;;19.50;71.10;;;;;;5032133;28;20065;-92
2021/09/06 00:32:51;;;;;;;15.27;10.25;;;19.40;71.00;;;;;;5000684;28;20097;-92
2021/09/06 00:35:18;;;;;;;13.85;10.05;;;19.40;71.00;;;;;;5019336;28;20050;-94
2021/09/06 00:37:45;;;;;;;12.35;9.38;;;19.40;70.90;;;;;;5019865;28;20057;-92
2021/09/06 00:40:13;;;;;;;15.93;10.40;;;19.40;71.00;;;;;;5037144;28;20115;-93
2021/09/06 00:42:40;;;;;;;12.45;9.13;;;19.40;71.20;;;;;;5034290;28;20050;-92
2021/09/06 00:45:07;;;;;;;14.48;9.35;;;19.30;71.10;;;;;;5037114;28;20053;-93
2021/09/06 00:47:36;;;;;;;13.68;9.93;;;19.30;71.10;;;;;;5019786;28;20053;-94
2021/09/06 00:50:09;;;;;;;14.88;9.80;;;19.30;71.10;;;;;;5017903;28;20470;-93
2021/09/06 00:52:37;;;;;;;12.00;9.52;;;19.20;71.10;;;;;;5018896;28;20041;-92
2021/09/06 00:55:05;;;;;;;15.05;9.82;;;19.20;71.20;;;;;;5018880;28;20049;-92
2021/09/06 00:57:33;;;;;;;15.07;10.35;;;19.20;71.30;;;;;;5013743;28;20058;-92
2021/09/06 01:00:02;;;;;;;12.25;9.95;;;19.10;71.20;;;;;;5016601;28;20111;-93
2021/09/06 01:02:29;;;;;;;12.88;9.82;;;19.10;71.30;;;;;;5036801;28;20060;-92
2021/09/06 01:04:56;;;;;;;13.07;9.77;;;19.10;71.40;;;;;;5018956;28;20480;-92
2021/09/06 01:07:23;;;;;;;12.77;9.70;;;19.00;71.50;;;;;;5018993;28;20054;-92
2021/09/06 01:09:50;;;;;;;12.48;9.90;;;19.00;71.60;;;;;;5018288;28;20057;-91
2021/09/06 01:12:17;;;;;;;16.48;9.25;;;19.00;71.60;;;;;;5015289;28;20053;-93
2021/09/06 01:14:44;;;;;;;13.60;10.07;;;19.00;71.60;;;;;;4999824;28;20092;-92
2021/09/06 01:17:11;;;;;;;11.77;9.18;;;18.90;71.50;;;;;;4999429;28;20058;-92
2021/09/06 01:19:39;;;;;;;11.73;9.35;;;18.90;71.50;;;;;;4999220;28;20112;-92
2021/09/06 01:22:07;;;;;;;13.68;9.98;;;18.90;71.50;;;;;;4999152;28;20069;-93
2021/09/06 01:24:34;;;;;;;15.63;9.45;;;18.90;71.40;;;;;;4997908;28;20053;-91
2021/09/06 01:27:02;;;;;;;12.93;9.02;;;18.80;71.30;;;;;;5016667;28;20053;-93
2021/09/06 01:29:29;;;;;;;12.82;10.40;;;18.80;71.40;;;;;;5018710;28;20180;-92
2021/09/06 01:31:56;;;;;;;14.75;11.07;;;18.80;71.40;;;;;;5001431;28;20492;-92
2021/09/06 01:34:23;;;;;;;14.35;10.93;;;18.70;71.50;;;;;;5011481;28;20061;-92
2021/09/06 01:36:50;;;;;;;12.85;11.25;;;18.70;71.70;;;;;;5014154;28;20049;-91
2021/09/06 01:39:17;;;;;;;15.43;11.80;;;18.70;71.80;;;;;;5018206;28;20140;-93
2021/09/06 01:41:44;;;;;;;16.95;11.93;;;18.70;71.90;;;;;;5018725;28;20056;-92
2021/09/06 01:44:11;;;;;;;18.13;11.63;;;18.60;72.00;;;;;;5018615;28;20062;-92
2021/09/06 01:46:38;;;;;;;14.02;11.20;;;18.60;72.10;;;;;;5005556;28;20050;-92
2021/09/06 01:49:05;;;;;;;15.40;11.07;;;18.60;72.20;;;;;;5010068;28;20058;-91
2021/09/06 01:51:32;;;;;;;15.48;11.13;;;18.60;72.20;;;;;;5012114;28;20420;-92
2021/09/06 01:53:59;;;;;;;11.30;9.52;;;18.60;72.30;;;;;;4998218;28;20057;-92
2021/09/06 01:56:26;;;;;;;12.40;9.70;;;18.60;72.30;;;;;;5017755;28;20060;-91
2021/09/06 01:58:53;;;;;;;18.65;11.75;;;18.50;72.40;;;;;;5001909;28;20504;-92
2021/09/06 02:01:20;;;;;;;16.35;10.95;;;18.50;72.50;;;;;;5002341;28;20046;-92
2021/09/06 02:03:48;;;;;;;13.68;10.15;;;18.50;72.40;;;;;;5018059;28;20526;-91
2021/09/06 02:06:14;;;;;;;16.80;10.40;;;18.50;72.30;;;;;;5014478;28;20501;-90
2021/09/06 02:08:42;;;;;;;12.48;10.60;;;18.40;72.20;;;;;;4997916;28;20058;-91
2021/09/06 02:11:09;;;;;;;14.38;11.23;;;18.40;72.20;;;;;;4998286;28;20045;-92
2021/09/06 02:13:36;;;;;;;15.18;10.55;;;18.40;72.20;;;;;;5004105;28;20115;-90
2021/09/06 02:16:03;;;;;;;18.08;12.20;;;18.40;72.20;;;;;;5018316;28;20103;-91
2021/09/06 02:18:31;;;;;;;16.60;11.63;;;18.40;72.20;;;;;;5017470;28;20052;-91
2021/09/06 02:20:58;;;;;;;16.30;12.88;;;18.30;72.30;;;;;;5017680;28;20116;-92
2021/09/06 02:23:25;;;;;;;14.70;12.30;;;18.30;72.40;;;;;;5017344;28;20565;-92
2021/09/06 02:25:52;;;;;;;17.63;12.88;;;18.30;72.40;;;;;;5017497;28;20119;-92
2021/09/06 02:28:19;;;;;;;15.27;12.32;;;18.30;72.50;;;;;;5025746;28;20054;-91
2021/09/06 02:30:46;;;;;;;14.63;11.43;;;18.20;72.50;;;;;;5017189;28;20107;-92
2021/09/06 02:33:13;;;;;;;15.88;12.57;;;18.20;72.60;;;;;;5017478;28;20124;-92
2021/09/06 02:35:40;;;;;;;14.75;11.45;;;18.20;72.50;;;;;;5017368;28;20061;-91
2021/09/06 02:38:06;;;;;;;13.43;11.23;;;18.20;72.40;;;;;;5009184;28;20057;-91
2021/09/06 02:40:33;;;;;;;15.90;12.55;;;18.10;72.40;;;;;;5016734;28;20057;-91
2021/09/06 02:43:00;;;;;;;16.63;12.73;;;18.10;72.40;;;;;;5016145;28;20054;-92
2021/09/06 02:45:27;;;;;;;14.13;11.65;;;18.10;72.50;;;;;;5016772;28;20107;-92
2021/09/06 02:47:54;;;;;;;15.52;12.43;;;18.10;72.50;;;;;;5017200;28;20080;-90
2021/09/06 02:50:21;;;;;;;13.75;11.25;;;18.00;72.60;;;;;;5016623;28;20061;-91
2021/09/06 02:52:48;;;;;;;13.52;11.38;;;18.00;72.70;;;;;;5016572;28;20057;-90
2021/09/06 02:55:15;;;;;;;18.27;12.95;;;18.00;72.70;;;;;;5016514;28;20049;-90
2021/09/06 02:57:42;;;;;;;21.08;12.52;;;18.00;72.70;;;;;;5027828;28;20115;-91
2021/09/06 03:00:10;;;;;;;13.25;11.15;;;17.90;72.70;;;;;;5015441;28;20444;-90
2021/09/06 03:02:37;;;;;;;16.00;12.32;;;17.90;72.80;;;;;;5033681;28;20049;-90
2021/09/06 03:05:06;;;;;;;14.15;12.55;;;17.90;72.90;;;;;;5013517;28;20488;-91
2021/09/06 03:07:34;;;;;;;16.50;11.95;;;17.90;72.90;;;;;;5007666;28;20045;-91
2021/09/06 03:10:01;;;;;;;15.40;12.43;;;17.90;72.90;;;;;;5016476;28;20112;-91
2021/09/06 03:12:28;;;;;;;13.10;10.73;;;17.90;72.80;;;;;;5012704;28;20479;-92
2021/09/06 03:14:55;;;;;;;15.73;10.45;;;17.80;72.80;;;;;;5015961;28;20054;-91
2021/09/06 03:17:22;;;;;;;15.90;12.02;;;17.80;72.90;;;;;;5016073;28;20056;-90
2021/09/06 03:19:49;;;;;;;16.60;11.15;;;17.80;73.00;;;;;;5001451;28;20057;-91
2021/09/06 03:22:17;;;;;;;13.65;10.65;;;17.80;73.10;;;;;;5017105;28;20413;-90
2021/09/06 03:24:45;;;;;;;14.88;11.23;;;17.70;73.00;;;;;;5010236;28;20049;-90
2021/09/06 03:27:13;;;;;;;12.98;11.02;;;17.70;73.00;;;;;;5032586;28;20076;-91
2021/09/06 03:29:40;;;;;;;14.05;10.32;;;17.70;73.00;;;;;;5015751;28;20053;-91
2021/09/06 03:32:07;;;;;;;17.55;11.32;;;17.70;73.00;;;;;;5012138;28;20049;-90
2021/09/06 03:34:34;;;;;;;14.50;11.40;;;17.70;73.10;;;;;;5002446;28;20053;-90
2021/09/06 03:37:01;;;;;;;14.25;11.27;;;17.60;73.10;;;;;;5003347;28;20176;-91
2021/09/06 03:39:28;;;;;;;17.13;12.05;;;17.60;73.20;;;;;;5015661;28;20057;-91
2021/09/06 03:41:55;;;;;;;15.88;12.30;;;17.60;73.20;;;;;;5015265;28;20049;-91
2021/09/06 03:44:24;;;;;;;14.20;11.38;;;17.60;73.20;;;;;;4995620;28;20111;-89
2021/09/06 03:46:52;;;;;;;14.00;11.05;;;17.50;73.10;;;;;;5015922;28;20050;-91
2021/09/06 03:49:19;;;;;;;16.73;12.43;;;17.50;73.10;;;;;;5006690;28;20118;-90
2021/09/06 03:51:45;;;;;;;15.40;11.60;;;17.50;73.20;;;;;;5010211;28;20562;-90
2021/09/06 03:54:12;;;;;;;14.10;11.85;;;17.50;73.20;;;;;;5011579;28;20471;-89
2021/09/06 03:56:39;;;;;;;16.88;11.20;;;17.40;73.10;;;;;;4996040;28;20057;-90
2021/09/06 03:59:06;;;;;;;13.85;11.32;;;17.40;73.20;;;;;;5006126;28;20049;-91
2021/09/06 04:01:33;;;;;;;16.30;11.95;;;17.40;73.20;;;;;;5001706;28;20056;-90
2021/09/06 04:04:00;;;;;;;15.93;11.98;;;17.40;73.30;;;;;;5003206;28;20049;-89
2021/09/06 04:06:27;;;;;;;16.50;12.25;;;17.40;73.20;;;;;;5012249;28;20060;-90
2021/09/06 04:08:55;;;;;;;13.90;11.77;;;17.40;73.10;;;;;;5012126;28;20045;-90
2021/09/06 04:11:22;;;;;;;15.23;11.32;;;17.40;73.00;;;;;;5032913;28;20057;-89
2021/09/06 04:13:49;;;;;;;15.30;12.00;;;17.30;73.00;;;;;;5030796;28;20119;-91
2021/09/06 04:16:16;;;;;;;17.25;12.07;;;17.30;73.10;;;;;;5014672;28;20548;-91
2021/09/06 04:18:43;;;;;;;14.93;12.65;;;17.30;73.20;;;;;;5011647;28;20073;-90
2021/09/06 04:21:10;;;;;;;18.35;12.25;;;17.20;73.20;;;;;;5014510;28;20058;-91
2021/09/06 04:23:39;;;;;;;16.98;11.38;;;17.20;73.20;;;;;;5015286;28;20111;-90
2021/09/06 04:26:06;;;;;;;16.23;12.43;;;17.20;73.20;;;;;;5030944;28;20057;-90
2021/09/06 04:28:33;;;;;;;16.95;11.93;;;17.20;73.30;;;;;;5015104;28;20061;-90
2021/09/06 04:31:00;;;;;;;15.73;12.52;;;17.20;73.50;;;;;;5013607;28;20420;-91
2021/09/06 04:33:27;;;;;;;16.92;12.77;;;17.20;73.60;;;;;;5010928;28;20042;-89
2021/09/06 04:35:54;;;;;;;19.08;12.52;;;17.20;73.60;;;;;;5031733;28;20065;-91
2021/09/06 04:38:20;;;;;;;15.18;11.90;;;17.10;73.50;;;;;;5012302;28;20565;-89
2021/09/06 04:40:47;;;;;;;16.45;12.52;;;17.10;73.50;;;;;;5010547;28;20091;-89
2021/09/06 04:43:14;;;;;;;19.42;13.50;;;17.10;73.50;;;;;;5011375;28;20076;-89
2021/09/06 04:45:41;;;;;;;14.55;12.90;;;17.10;73.50;;;;;;5030824;28;20061;-90
2021/09/06 04:48:08;;;;;;;19.70;11.38;;;17.00;73.40;;;;;;5031263;28;20057;-91
2021/09/06 04:50:35;;;;;;;15.98;10.75;;;17.00;73.30;;;;;;5015013;28;20049;-89
2021/09/06 04:53:02;;;;;;;21.45;12.50;;;17.00;73.30;;;;;;5030870;28;20050;-92
2021/09/06 04:55:29;;;;;;;17.27;12.48;;;16.90;73.20;;;;;;5030523;28;20058;-91
2021/09/06 04:57:56;;;;;;;13.35;11.45;;;16.90;73.20;;;;;;5030380;28;20091;-91
2021/09/06 05:00:23;;;;;;;15.45;12.35;;;16.90;73.30;;;;;;5032122;28;20045;-91
2021/09/06 05:02:50;;;;;;;18.27;13.10;;;16.90;73.40;;;;;;5014476;28;20412;-90
2021/09/06 05:05:18;;;;;;;16.88;12.70;;;16.80;73.60;;;;;;5034147;28;20569;-90
2021/09/06 05:07:44;;;;;;;16.33;12.43;;;16.80;73.80;;;;;;5017670;28;20068;-92
2021/09/06 05:10:11;;;;;;;15.18;11.30;;;16.80;74.00;;;;;;5034402;28;20601;-91
2021/09/06 05:12:38;;;;;;;17.15;11.57;;;16.80;74.00;;;;;;5015501;28;20130;-90
2021/09/06 05:15:06;;;;;;;17.67;12.85;;;16.80;74.10;;;;;;5015900;28;20523;-91
2021/09/06 05:17:33;;;;;;;15.02;11.77;;;16.80;74.00;;;;;;5017825;28;20140;-91
2021/09/06 05:20:01;;;;;;;16.40;12.75;;;16.80;74.00;;;;;;5015289;28;20486;-90
2021/09/06 05:22:28;;;;;;;15.88;12.35;;;16.80;73.90;;;;;;5033519;28;20115;-90
2021/09/06 05:24:55;;;;;;;17.80;12.23;;;16.80;73.90;;;;;;5031752;28;20052;-90
2021/09/06 05:27:22;;;;;;;17.45;12.35;;;16.80;73.90;;;;;;5034480;28;20041;-90
2021/09/06 05:29:50;;;;;;;14.88;12.13;;;16.80;74.00;;;;;;5017494;28;20064;-90
2021/09/06 05:32:17;;;;;;;15.13;12.23;;;16.70;74.00;;;;;;5033145;28;20060;-90
2021/09/06 05:34:44;;;;;;;19.40;13.63;;;16.70;74.10;;;;;;5033725;28;20045;-89
2021/09/06 05:37:11;;;;;;;18.77;13.85;;;16.70;74.30;;;;;;5016640;28;20492;-89
2021/09/06 05:39:37;;;;;;;18.10;12.68;;;16.60;74.40;;;;;;5030966;28;20042;-91
2021/09/06 05:42:04;;;;;;;16.70;13.20;;;16.60;74.40;;;;;;5034369;28;20049;-88
2021/09/06 05:44:31;;;;;;;18.63;13.60;;;16.70;74.40;;;;;;5013746;28;20069;-92
2021/09/06 05:47:00;;;;;;;17.23;13.55;;;16.60;74.40;;;;;;5013372;28;20045;-92
2021/09/06 05:49:27;;;;;;;19.75;14.25;;;16.60;74.40;;;;;;5015233;28;20515;-91
2021/09/06 05:51:54;;;;;;;21.58;13.60;;;16.60;74.50;;;;;;5032820;28;20045;-92
2021/09/06 05:54:21;;;;;;;17.52;12.77;;;16.60;74.50;;;;;;5033829;28;20455;-91
2021/09/06 05:56:47;;;;;;;16.77;11.77;;;16.70;74.60;;;;;;5030671;28;20049;-91
2021/09/06 05:59:14;;;;;;;21.00;13.73;;;16.60;74.60;;;;;;5014811;28;20100;-89
2021/09/06 06:01:41;;;;;;;16.70;12.35;;;16.60;74.70;;;;;;5031053;28;20052;-91
2021/09/06 06:04:09;;;;;;;16.77;12.63;;;16.60;74.80;;;;;;5032519;28;20049;-91
2021/09/06 06:06:36;;;;;;;17.38;12.10;;;16.60;74.90;;;;;;5032271;28;20049;-91
2021/09/06 06:09:03;;;;;;;15.25;11.30;;;16.60;75.00;;;;;;5015206;28;20049;-90
2021/09/06 06:11:30;;;;;;;20.88;13.85;;;16.60;75.10;;;;;;5033674;28;20054;-89
2021/09/06 06:13:57;;;;;;;18.55;13.60;;;16.70;75.20;;;;;;5031810;28;20046;-90
2021/09/06 06:16:24;;;;;;;18.38;13.68;;;16.70;75.40;;;;;;5035063;28;20041;-89
2021/09/06 06:18:51;;;;;;;16.63;12.52;;;16.70;75.50;;;;;;5041734;28;20409;-90
2021/09/06 06:21:18;;;;;;;20.17;14.80;;;16.70;75.60;;;;;;4998388;28;20061;-89
2021/09/06 06:23:45;;;;;;;17.40;14.52;;;16.70;75.70;;;;;;5003298;28;20049;-89
2021/09/06 06:26:11;;;;;;;18.30;12.15;;;16.70;75.70;;;;;;5045218;28;20110;-91
2021/09/06 06:28:38;;;;;;;19.90;14.40;;;16.70;75.80;;;;;;5018369;28;20045;-88
2021/09/06 06:31:05;;;;;;;16.98;13.55;;;16.80;75.90;;;;;;5028532;28;20050;-91
2021/09/06 06:33:32;;;;;;;20.42;15.23;;;16.80;76.00;;;;;;4999466;28;20452;-90
2021/09/06 06:36:01;;;;;;;20.67;16.70;;;16.80;76.10;;;;;;4998401;28;20089;-90
2021/09/06 06:38:28;;;;;;;17.48;13.80;;;16.90;76.20;;;;;;5028355;28;20049;-91
2021/09/06 06:40:55;;;;;;;25.15;15.75;;;16.90;76.30;;;;;;5026732;28;20069;-90
2021/09/06 06:43:23;;;;;;;22.33;16.35;;;16.90;76.40;;;;;;5014540;28;20053;-89
2021/09/06 06:45:49;;;;;;;19.58;14.73;;;16.90;76.60;;;;;;5012162;28;20467;-90
2021/09/06 06:48:17;;;;;;;21.30;15.75;;;17.00;76.70;;;;;;4997540;28;20050;-90
2021/09/06 06:50:44;;;;;;;21.65;16.55;;;17.00;76.90;;;;;;5013656;28;20389;-91
2021/09/06 06:53:11;;;;;;;19.45;15.43;;;17.10;77.00;;;;;;5025999;28;20057;-92
2021/09/06 06:55:42;;;;;;;18.80;15.65;;;17.10;77.10;;;;;;5027016;28;20045;-91
2021/09/06 06:58:09;;;;;;;21.17;17.58;;;17.10;77.10;;;;;;5013387;28;20061;-89
2021/09/06 07:00:35;;;;;;;18.85;14.93;;;17.20;77.10;;;;;;5015885;28;20096;-90
2021/09/06 07:03:03;;;;;;;35.53;20.35;;;17.20;77.10;;;;;;5013846;28;20129;-90
2021/09/06 07:05:30;;;;;;;21.48;18.65;;;17.30;77.10;;;;;;5017264;28;20428;-91
2021/09/06 07:07:57;;;;;;;24.48;18.88;;;17.40;77.30;;;;;;5012333;28;20050;-91
2021/09/06 07:10:24;;;;;;;30.42;20.88;;;17.40;77.40;;;;;;5026838;28;20052;-91
2021/09/06 07:12:51;;;;;;;25.10;19.58;;;17.40;77.50;;;;;;5010831;28;20046;-89
2021/09/06 07:15:18;;;;;;;28.02;21.13;;;17.40;77.60;;;;;;5011734;28;20045;-91
2021/09/06 07:17:45;;;;;;;35.00;25.10;;;17.50;77.80;;;;;;5005275;28;20066;-89
2021/09/06 07:20:13;;;;;;;32.42;23.83;;;17.60;78.10;;;;;;5025424;28;20056;-90
2021/09/06 07:22:40;;;;;;;33.90;26.98;;;17.70;78.20;;;;;;5007215;28;20468;-91
2021/09/06 07:25:07;;;;;;;36.75;27.55;;;17.70;78.30;;;;;;5003240;28;20054;-92
2021/09/06 07:27:35;;;;;;;31.85;23.13;;;17.80;78.30;;;;;;5026565;28;20049;-92
2021/09/06 07:30:04;;;;;;;33.05;23.00;;;17.90;78.30;;;;;;5028752;28;20141;-91
2021/09/06 07:32:32;;;;;;;40.70;27.92;;;17.90;78.20;;;;;;5000347;28;20253;-92
2021/09/06 07:34:59;;;;;;;31.70;24.15;;;18.00;78.30;;;;;;5011965;28;20064;-92
2021/09/06 07:37:26;;;;;;;35.47;24.75;;;18.10;78.40;;;;;;5013889;28;20579;-91
2021/09/06 07:39:53;;;;;;;31.48;21.48;;;18.20;78.50;;;;;;5029060;28;20665;-92
2021/09/06 07:42:19;;;;;;;34.63;23.48;;;18.30;78.70;;;;;;5011625;28;20475;-92
2021/09/06 07:44:46;;;;;;;35.95;26.75;;;18.40;78.80;;;;;;5017235;28;20054;-93
2021/09/06 07:47:14;;;;;;;39.90;27.42;;;18.40;78.60;;;;;;5004060;28;20050;-93
2021/09/06 07:49:43;;;;;;;39.33;26.92;;;18.50;78.30;;;;;;5021776;28;20045;-92
2021/09/06 07:52:10;;;;;;;35.03;23.95;;;18.60;78.10;;;;;;5018311;28;20063;-92
2021/09/06 07:54:37;;;;;;;50.25;29.55;;;18.70;78.10;;;;;;5012325;28;20044;-92
2021/09/06 07:57:04;;;;;;;58.38;32.90;;;18.80;78.00;;;;;;5013355;28;20069;-92
2021/09/06 07:59:31;;;;;;;44.35;30.70;;;18.90;77.80;;;;;;5013174;28;20057;-91
2021/09/06 08:01:59;;;;;;;38.22;26.67;;;19.00;77.80;;;;;;4999427;28;20465;-90
2021/09/06 08:04:26;;;;;;;38.00;26.58;;;19.10;77.70;;;;;;5016427;28;20449;-89
2021/09/06 08:06:53;;;;;;;34.75;23.25;;;19.30;77.50;;;;;;5018575;28;20408;-92
2021/09/06 08:09:21;;;;;;;39.13;29.33;;;19.40;77.40;;;;;;5012030;28;20558;-91
2021/09/06 08:11:48;;;;;;;34.22;25.05;;;19.50;77.10;;;;;;5012506;28;20050;-89
2021/09/06 08:14:17;;;;;;;39.80;27.60;;;19.60;77.00;;;;;;5011140;28;20057;-90
2021/09/06 08:16:44;;;;;;;26.65;18.88;;;19.70;76.70;;;;;;5016850;28;20526;-89
2021/09/06 08:19:11;;;;;;;42.47;27.38;;;19.90;76.50;;;;;;5021824;28;20058;-88
2021/09/06 08:21:39;;;;;;;33.95;25.85;;;19.90;76.20;;;;;;5014556;28;20550;-90
2021/09/06 08:24:06;;;;;;;32.80;25.35;;;20.00;76.10;;;;;;5012912;28;20335;-89
2021/09/06 08:26:33;;;;;;;37.60;27.15;;;20.20;76.00;;;;;;5006244;28;20050;-90
2021/09/06 08:29:00;;;;;;;34.95;25.90;;;20.30;75.90;;;;;;5022576;28;20046;-90
2021/09/06 08:31:30;;;;;;;38.15;26.42;;;20.40;75.60;;;;;;5023197;28;20086;-89
2021/09/06 08:33:59;;;;;;;32.22;24.15;;;20.50;75.50;;;;;;5016281;28;20129;-90
2021/09/06 08:36:26;;;;;;;35.35;25.05;;;20.60;75.50;;;;;;5031345;28;20481;-89
2021/09/06 08:38:53;;;;;;;31.48;23.80;;;20.70;75.30;;;;;;5018507;28;20054;-89
2021/09/06 08:41:20;;;;;;;35.70;23.70;;;20.90;75.10;;;;;;5020344;28;20053;-89
2021/09/06 08:43:47;;;;;;;30.45;23.38;;;21.00;75.00;;;;;;5025847;28;20099;-89
2021/09/06 08:46:15;;;;;;;32.28;23.08;;;21.20;74.70;;;;;;5027974;28;20423;-89
2021/09/06 08:48:44;;;;;;;31.27;22.23;;;21.30;74.50;;;;;;5018266;28;20045;-90
2021/09/06 08:51:11;;;;;;;32.63;24.27;;;21.40;74.40;;;;;;5017093;28;20077;-89
2021/09/06 08:53:38;;;;;;;35.67;23.23;;;21.60;73.90;;;;;;5019593;28;20046;-88
2021/09/06 08:56:05;;;;;;;31.40;22.67;;;21.70;73.40;;;;;;5026787;28;20504;-88
2021/09/06 08:58:52;;;;;;;27.92;21.40;;;21.90;72.90;;;;;;5023174;28;20049;-90
2021/09/06 09:01:20;;;;;;;30.23;22.35;;;21.90;72.30;;;;;;5019798;28;20049;-92
2021/09/06 09:03:47;;;;;;;24.92;17.92;;;22.10;71.90;;;;;;5019065;28;20083;-90
2021/09/06 09:06:14;;;;;;;25.73;19.17;;;22.20;71.70;;;;;;5017576;28;20491;-90
2021/09/06 09:08:46;;;;;;;23.67;17.50;;;22.40;71.70;;;;;;5030441;28;20470;-90
2021/09/06 09:11:12;;;;;;;21.25;15.60;;;22.50;70.90;;;;;;5030722;28;20053;-92
2021/09/06 09:13:42;;;;;;;21.63;14.98;;;22.60;70.20;;;;;;5024675;28;20045;-91
2021/09/06 09:16:09;;;;;;;21.88;15.75;;;22.80;69.20;;;;;;5018861;28;20054;-92
2021/09/06 09:18:37;;;;;;;20.58;14.30;;;22.90;68.60;;;;;;5030494;28;20046;-90
2021/09/06 09:21:07;;;;;;;34.42;15.57;;;23.00;68.10;;;;;;5017152;28;20050;-90
2021/09/06 09:23:48;;;;;;;20.63;15.57;;;23.20;67.80;;;;;;5019506;28;20046;-92
2021/09/06 09:26:15;;;;;;;19.75;15.35;;;23.30;67.30;;;;;;5015920;28;20049;-91
2021/09/06 09:28:46;;;;;;;23.05;16.83;;;23.40;67.10;;;;;;5024711;28;20046;-94
2021/09/06 09:31:18;;;;;;;19.60;14.77;;;23.50;66.90;;;;;;5018423;28;20089;-91
2021/09/06 09:33:55;;;;;;;22.20;14.52;;;23.60;66.80;;;;;;5031537;28;20468;-92
2021/09/06 09:36:41;;;;;;;21.35;14.05;;;23.80;66.40;;;;;;5016896;28;20053;-93
2021/09/06 09:39:20;;;;;;;19.63;13.32;;;23.90;66.10;;;;;;4999625;28;20590;-93
2021/09/06 09:41:49;;;;;;;20.63;12.80;;;24.00;65.70;;;;;;5031199;28;20056;-93
2021/09/06 09:44:21;;;;;;;17.65;13.18;;;24.10;64.90;;;;;;5019792;28;20045;-93
2021/09/06 09:46:56;;;;;;;23.73;13.10;;;24.20;64.50;;;;;;5019257;28;20057;-92
2021/09/06 09:49:24;;;;;;;25.90;12.65;;;24.40;64.00;;;;;;5005699;28;20054;-93
2021/09/06 09:51:51;;;;;;;23.25;13.00;;;24.50;63.50;;;;;;5003769;28;20080;-92
2021/09/06 09:54:19;;;;;;;21.75;11.07;;;24.60;63.10;;;;;;5032137;28;20058;-94
2021/09/06 09:56:47;;;;;;;21.08;11.02;;;24.70;62.80;;;;;;5019859;28;20050;-94
2021/09/06 09:59:15;;;;;;;14.75;11.70;;;24.80;62.30;;;;;;5027846;28;20168;-93
2021/09/06 10:02:03;;;;;;;15.68;12.10;;;24.90;62.00;;;;;;5023542;28;20092;-93
2021/09/06 10:04:34;;;;;;;18.85;10.95;;;25.10;61.90;;;;;;5015792;28;20074;-92
2021/09/06 10:07:03;;;;;;;18.38;10.98;;;25.20;61.90;;;;;;5019597;28;20057;-95
2021/09/06 10:09:41;;;;;;;19.13;10.35;;;25.30;61.30;;;;;;5008685;28;20555;-95
2021/09/06 10:12:09;;;;;;;20.20;10.20;;;25.40;59.90;;;;;;5005048;28;20473;-91
2021/09/06 10:14:47;;;;;;;14.25;9.90;;;25.50;58.80;;;;;;5022653;28;20108;-94
2021/09/06 10:17:14;;;;;;;17.88;10.90;;;25.60;58.60;;;;;;5014113;28;20054;-90
2021/09/06 10:19:43;;;;;;;16.67;11.05;;;25.70;58.40;;;;;;5012405;28;20053;-90
2021/09/06 10:22:27;;;;;;;16.05;9.93;;;25.80;58.40;;;;;;5027460;28;20052;-93
2021/09/06 10:24:59;;;;;;;11.60;8.65;;;25.90;58.30;;;;;;5016442;28;20424;-93
2021/09/06 10:27:30;;;;;;;13.15;8.05;;;25.90;58.00;;;;;;4998377;28;20072;-91
2021/09/06 10:30:17;;;;;;;14.13;7.15;;;26.10;57.50;;;;;;5029435;28;20046;-91
2021/09/06 10:32:47;;;;;;;9.75;8.00;;;26.10;56.80;;;;;;5005474;28;20057;-89
2021/09/06 10:35:14;;;;;;;12.20;7.82;;;26.20;56.60;;;;;;5011225;28;20054;-89
2021/09/06 10:37:43;;;;;;;15.77;9.38;;;26.30;56.50;;;;;;5018727;28;20483;-90
2021/09/06 10:40:27;;;;;;;15.27;10.30;;;26.40;56.30;;;;;;5004785;28;20045;-91
2021/09/06 10:42:54;;;;;;;13.45;9.10;;;26.40;56.30;;;;;;5029388;28;20119;-90
2021/09/06 10:45:22;;;;;;;14.95;8.23;;;26.50;56.10;;;;;;5011824;28;20504;-90
2021/09/06 10:47:58;;;;;;;11.60;8.05;;;26.60;55.80;;;;;;5029306;28;20115;-90
2021/09/06 10:50:27;;;;;;;13.00;9.20;;;26.70;55.60;;;;;;5000827;28;20428;-90
2021/09/06 10:52:53;;;;;;;14.30;9.70;;;26.80;55.50;;;;;;5003734;28;20064;-91
2021/09/06 10:55:21;;;;;;;11.77;9.20;;;26.80;55.40;;;;;;5013287;28;20046;-90
2021/09/06 10:57:48;;;;;;;11.57;6.97;;;26.80;55.20;;;;;;5007300;28;20463;-93
2021/09/06 11:00:22;;;;;;;11.88;6.20;;;26.90;55.30;;;;;;5050305;28;20124;-95
2021/09/06 11:02:52;;;;;;;8.48;6.22;;;27.00;55.20;;;;;;5051348;28;20554;-96
2021/09/06 11:05:23;;;;;;;8.63;6.75;;;27.10;55.10;;;;;;5031461;28;20072;-92
2021/09/06 11:07:51;;;;;;;8.55;6.03;;;27.30;54.70;;;;;;5026919;28;20050;-95
2021/09/06 11:10:21;;;;;;;12.43;7.35;;;27.30;54.20;;;;;;5007102;28;20104;-94
2021/09/06 11:13:01;;;;;;;12.48;7.13;;;27.40;53.90;;;;;;5035202;28;20076;-95
2021/09/06 11:15:33;;;;;;;10.07;7.78;;;27.50;54.30;;;;;;5027263;28;20042;-96
2021/09/06 11:18:03;;;;;;;9.50;7.68;;;27.60;54.20;;;;;;5035975;28;20060;-94
2021/09/06 11:20:34;;;;;;;12.57;8.65;;;27.80;54.10;;;;;;5007455;28;20052;-93
2021/09/06 11:23:03;;;;;;;12.25;8.10;;;27.90;54.10;;;;;;5009727;28;20062;-91
2021/09/06 11:25:37;;;;;;;14.68;8.77;;;27.90;54.00;;;;;;4997375;28;20100;-92
2021/09/06 11:28:12;;;;;;;13.35;8.30;;;28.00;54.10;;;;;;5021323;28;20080;-95
2021/09/06 11:30:44;;;;;;;11.27;7.57;;;28.10;53.70;;;;;;5014625;28;20567;-95
2021/09/06 11:33:13;;;;;;;13.60;7.75;;;28.20;53.70;;;;;;5014961;28;20060;-96
2021/09/06 11:35:42;;;;;;;17.02;8.23;;;28.30;53.50;;;;;;5016329;28;20054;-93
2021/09/06 11:38:11;;;;;;;11.98;8.38;;;28.40;53.60;;;;;;5015546;28;20054;-94
2021/09/06 11:40:53;;;;;;;11.68;7.45;;;28.50;53.30;;;;;;5025676;28;20045;-94
2021/09/06 11:43:22;;;;;;;10.30;8.02;;;28.60;52.90;;;;;;5026553;28;20116;-95
2021/09/06 11:45:58;;;;;;;14.18;8.55;;;28.60;52.90;;;;;;5014187;28;20077;-92
2021/09/06 11:48:25;;;;;;;9.98;7.50;;;28.70;52.50;;;;;;5030858;28;20037;-95
2021/09/06 11:50:52;;;;;;;13.57;8.18;;;28.70;52.30;;;;;;5028432;28;20069;-96
2021/09/06 11:53:19;;;;;;;13.05;7.68;;;28.80;52.30;;;;;;5020795;28;20049;-95
2021/09/06 11:55:55;;;;;;;13.18;8.25;;;28.90;52.10;;;;;;5022837;28;20459;-95
2021/09/06 11:58:44;;;;;;;11.98;9.18;;;29.00;52.20;;;;;;5013704;28;20046;-95
2021/09/06 12:01:15;;;;;;;14.35;8.93;;;29.10;51.90;;;;;;5021629;28;20050;-94
2021/09/06 12:03:44;;;;;;;11.10;8.95;;;29.20;51.70;;;;;;5021145;28;20108;-94
2021/09/06 12:06:14;;;;;;;10.10;7.45;;;29.30;51.50;;;;;;5017429;28;20136;-96
2021/09/06 12:08:56;;;;;;;11.52;8.75;;;29.30;51.40;;;;;;5023584;28;20054;-95
2021/09/06 12:11:44;;;;;;;9.00;7.53;;;29.40;51.30;;;;;;5011361;28;20042;-96
2021/09/06 12:14:11;;;;;;;9.73;7.07;;;29.60;50.80;;;;;;5022097;28;20060;-96
2021/09/06 12:16:39;;;;;;;12.73;7.45;;;29.60;50.40;;;;;;5031684;28;20048;-95
2021/09/06 12:19:20;;;;;;;14.55;7.55;;;29.80;50.50;;;;;;5020642;28;20050;-94
2021/09/06 12:21:48;;;;;;;9.15;7.47;;;29.80;50.40;;;;;;5015982;28;20050;-96
2021/09/06 12:24:21;;;;;;;10.70;7.78;;;29.90;50.20;;;;;;5019624;28;20090;-96
2021/09/06 12:26:48;;;;;;;15.27;8.13;;;30.00;50.10;;;;;;5024982;28;20084;-95
2021/09/06 12:29:29;;;;;;;12.82;8.48;;;30.10;49.70;;;;;;5038297;28;20508;-94
2021/09/06 12:31:57;;;;;;;11.40;8.00;;;30.10;49.50;;;;;;5018780;28;20054;-96
2021/09/06 12:34:24;;;;;;;10.52;7.70;;;30.20;49.40;;;;;;5017497;28;20057;-94
2021/09/06 12:36:58;;;;;;;13.60;7.60;;;30.30;49.40;;;;;;5036275;28;20058;-96